Terminal Aerodrome Forecast
Issued by NWS

Home | Current Version | Previous Version | Text Only | Print | Product List | Glossary On
Versions: 1 2 3 4 5 6 7 8 9 10 11 12 13 14 15 16 17 18 19 20 21 22 23 24 25 26 27 28
000
FTUS44 KCRP 031600 AAA
TAFALI
TAF AMD
KALI 031636Z 0317/0412 35005KT 1/2SM -DZ FG VV002
      TEMPO 0317/0318 1SM BR OVC002
     FM031800 VRB04KT 3SM BR OVC003
     FM031900 18008KT P6SM OVC008
     FM032100 16012G18KT P6SM OVC015
     FM040200 13010KT 3SM BR OVC003=

USA.gov is the U.S. government's official web portal to all federal, state and local government web resources and services.